createdAt,value
2019-04-03T00:00:36.883Z,10.600000
2019-04-03T00:03:07.406Z,7.400000
2019-04-03T00:05:37.786Z,7.400000
2019-04-03T00:08:08.163Z,9.200000
2019-04-03T00:10:38.530Z,9.200000
2019-04-03T00:13:10.736Z,7.500000
2019-04-03T00:15:44.217Z,7.500000
2019-04-03T00:18:16.591Z,7.500000
2019-04-03T00:20:48.664Z,7.500000
2019-04-03T00:23:20.583Z,9.300000
2019-04-03T00:25:52.857Z,9.300000
2019-04-03T00:28:23.178Z,10.500000
2019-04-03T00:30:53.460Z,10.500000
2019-04-03T00:33:23.914Z,7.700000
2019-04-03T00:35:54.483Z,7.700000
2019-04-03T00:38:24.864Z,6.900000
2019-04-03T00:40:55.244Z,6.900000
2019-04-03T00:43:25.815Z,7.300000
2019-04-03T00:45:56.177Z,7.300000
2019-04-03T00:48:26.557Z,6.000000
2019-04-03T00:50:57.578Z,6.000000
2019-04-03T00:53:28.288Z,7.800000
2019-04-03T00:55:58.778Z,7.800000
2019-04-03T00:58:29.120Z,7.800000
2019-04-03T01:00:59.377Z,7.800000
2019-04-03T01:03:29.855Z,8.600000
2019-04-03T01:06:00.325Z,8.600000
2019-04-03T01:08:30.625Z,7.200000
2019-04-03T01:11:01.083Z,7.200000
2019-04-03T01:13:31.868Z,8.900000
2019-04-03T01:16:02.930Z,8.900000
2019-04-03T01:18:35.114Z,9.300000
2019-04-03T01:21:06.831Z,9.300000
2019-04-03T01:23:38.146Z,9.400000
2019-04-03T01:26:10.082Z,9.400000
2019-04-03T01:28:41.828Z,10.700000
2019-04-03T01:31:15.041Z,10.700000
2019-04-03T01:33:47.041Z,10.800000
2019-04-03T01:36:18.116Z,10.800000
2019-04-03T01:38:49.745Z,8.500000
2019-04-03T01:41:21.605Z,8.500000
2019-04-03T01:43:53.818Z,9.500000
2019-04-03T01:46:27.153Z,9.500000
2019-04-03T01:48:58.636Z,9.900000
2019-04-03T01:51:30.013Z,8.700000
2019-04-03T01:54:02.386Z,8.700000
2019-04-03T01:56:35.194Z,10.200000
2019-04-03T01:59:06.846Z,10.200000
2019-04-03T02:01:38.705Z,10.400000
2019-04-03T02:04:12.112Z,10.400000
2019-04-03T02:06:44.242Z,10.600000
2019-04-03T02:09:19.646Z,10.600000
2019-04-03T02:11:49.950Z,11.800000
2019-04-03T02:14:21.588Z,11.800000
2019-04-03T02:16:53.488Z,10.400000
2019-04-03T02:19:26.099Z,10.400000
2019-04-03T02:21:58.458Z,11.200000
2019-04-03T02:24:30.958Z,11.200000
2019-04-03T02:27:03.078Z,11.800000
2019-04-03T02:29:33.942Z,11.800000
2019-04-03T02:32:09.670Z,8.700000
2019-04-03T02:34:40.070Z,8.700000
2019-04-03T02:37:10.463Z,11.600000
2019-04-03T02:39:41.145Z,11.600000
2019-04-03T02:42:11.638Z,12.300000
2019-04-03T02:44:41.988Z,12.300000
2019-04-03T02:47:12.753Z,10.700000
2019-04-03T02:49:43.793Z,10.700000
2019-04-03T02:52:14.669Z,11.800000
2019-04-03T02:54:45.204Z,11.800000
2019-04-03T02:57:17.495Z,12.400000
2019-04-03T02:59:48.533Z,12.400000
2019-04-03T03:02:19.069Z,13.800000
2019-04-03T03:04:49.429Z,13.800000
2019-04-03T03:07:20.041Z,13.800000
2019-04-03T03:09:51.551Z,13.800000
2019-04-03T03:12:21.988Z,13.800000
2019-04-03T03:14:52.592Z,13.800000
2019-04-03T03:17:23.642Z,13.700000
2019-04-03T03:19:54.392Z,13.700000
2019-04-03T03:22:24.790Z,14.800000
2019-04-03T03:24:55.128Z,14.800000
2019-04-03T03:27:25.551Z,13.900000
2019-04-03T03:29:58.617Z,13.900000
2019-04-03T03:32:34.645Z,15.600000
2019-04-03T03:35:12.366Z,15.600000
2019-04-03T03:37:44.449Z,16.700000
2019-04-03T03:40:16.161Z,16.700000
2019-04-03T03:42:47.220Z,15.600000
2019-04-03T03:45:19.511Z,15.600000
2019-04-03T03:47:51.067Z,15.000000
2019-04-03T03:50:23.913Z,15.000000
2019-04-03T03:52:55.229Z,15.000000
2019-04-03T03:55:26.254Z,15.000000
2019-04-03T03:57:56.674Z,12.000000
2019-04-03T04:00:27.004Z,12.000000
2019-04-03T04:02:57.328Z,14.400000
2019-04-03T04:05:27.769Z,14.400000
2019-04-03T04:07:58.095Z,13.800000
2019-04-03T04:10:28.525Z,13.800000
2019-04-03T04:12:59.047Z,15.100000
2019-04-03T04:15:30.832Z,15.100000
2019-04-03T04:18:01.953Z,13.700000
2019-04-03T04:20:38.391Z,13.700000
2019-04-03T04:23:14.374Z,13.700000
2019-04-03T04:25:44.731Z,13.700000
2019-04-03T04:28:15.221Z,12.100000
2019-04-03T04:30:45.514Z,12.100000
2019-04-03T04:33:17.020Z,11.400000
2019-04-03T04:35:48.035Z,10.500000
2019-04-03T04:38:18.320Z,10.500000
2019-04-03T04:40:48.653Z,10.700000
2019-04-03T04:43:18.993Z,10.700000
2019-04-03T04:45:49.420Z,10.000000
2019-04-03T04:48:20.760Z,10.000000
2019-04-03T04:50:54.220Z,9.400000
2019-04-03T04:53:25.410Z,9.400000
2019-04-03T04:55:55.730Z,9.800000
2019-04-03T04:58:25.975Z,9.800000
2019-04-03T05:00:56.304Z,9.100000
2019-04-03T05:03:26.723Z,9.100000
2019-04-03T05:05:57.856Z,8.400000
2019-04-03T05:08:33.972Z,8.400000
2019-04-03T05:11:06.964Z,8.800000
2019-04-03T05:13:37.930Z,8.800000
2019-04-03T05:16:08.375Z,8.100000
2019-04-03T05:18:39.186Z,8.100000
2019-04-03T05:21:09.624Z,8.100000
2019-04-03T05:23:40.069Z,8.100000
2019-04-03T05:26:10.385Z,8.600000
2019-04-03T05:28:53.303Z,8.600000
2019-04-03T05:31:26.198Z,7.900000
2019-04-03T05:33:56.639Z,7.900000
2019-04-03T05:36:27.087Z,7.600000
2019-04-03T05:38:57.477Z,7.600000
2019-04-03T05:41:28.610Z,7.400000
2019-04-03T05:44:00.064Z,7.400000
2019-04-03T05:46:32.281Z,11.000000
2019-04-03T05:49:02.762Z,11.000000
2019-04-03T05:51:33.091Z,9.600000
2019-04-03T05:54:03.510Z,9.600000
2019-04-03T05:56:33.887Z,10.100000
2019-04-03T05:59:04.261Z,10.100000
2019-04-03T06:01:34.595Z,8.600000
2019-04-03T06:04:05.239Z,8.600000
2019-04-03T06:06:36.380Z,10.200000
2019-04-03T06:09:07.145Z,10.200000
2019-04-03T06:11:40.148Z,10.000000
2019-04-03T06:14:10.826Z,10.000000
2019-04-03T06:16:41.170Z,8.900000
2019-04-03T06:19:11.544Z,8.900000
2019-04-03T06:21:41.963Z,12.400000
2019-04-03T06:24:12.405Z,12.400000
2019-04-03T06:26:44.566Z,11.300000
2019-04-03T06:29:16.944Z,11.300000
2019-04-03T06:31:49.317Z,12.200000
2019-04-03T06:34:20.379Z,12.200000
2019-04-03T06:36:51.161Z,9.800000
2019-04-03T06:39:23.536Z,9.800000
2019-04-03T06:41:54.668Z,10.100000
2019-04-03T06:44:25.220Z,10.100000
2019-04-03T06:46:55.527Z,12.800000
2019-04-03T06:49:25.914Z,12.800000
2019-04-03T06:51:56.408Z,9.700000
2019-04-03T06:54:26.729Z,9.700000
2019-04-03T06:56:56.984Z,12.600000
2019-04-03T06:59:27.255Z,12.600000
2019-04-03T07:01:57.598Z,14.300000
2019-04-03T07:04:28.077Z,14.300000
2019-04-03T07:06:58.632Z,12.700000
2019-04-03T07:09:35.142Z,12.700000
2019-04-03T07:12:07.058Z,11.800000
2019-04-03T07:14:37.615Z,11.800000
2019-04-03T07:17:08.014Z,13.700000
2019-04-03T07:19:39.737Z,13.700000
2019-04-03T07:22:10.470Z,12.900000
2019-04-03T07:24:40.857Z,12.900000
2019-04-03T07:27:11.547Z,13.600000
2019-04-03T07:29:44.603Z,13.600000
2019-04-03T07:32:14.991Z,13.900000
2019-04-03T07:34:45.493Z,13.900000
2019-04-03T07:37:18.828Z,12.800000
2019-04-03T07:39:50.534Z,12.800000
2019-04-03T07:42:24.260Z,13.700000
2019-04-03T07:44:55.235Z,13.700000
2019-04-03T07:47:25.567Z,14.100000
2019-04-03T07:49:55.893Z,11.600000
2019-04-03T07:52:26.338Z,11.600000
2019-04-03T07:54:57.223Z,13.000000
2019-04-03T07:57:29.109Z,13.000000
2019-04-03T07:59:59.982Z,13.200000
2019-04-03T08:02:30.302Z,13.200000
2019-04-03T08:05:01.005Z,12.700000
2019-04-03T08:07:31.605Z,12.700000
2019-04-03T08:10:01.985Z,12.000000
2019-04-03T08:12:34.545Z,12.000000
2019-04-03T08:15:05.871Z,11.600000
2019-04-03T08:17:36.241Z,11.600000
2019-04-03T08:20:06.995Z,10.800000
2019-04-03T08:22:37.408Z,10.800000
2019-04-03T08:25:10.690Z,11.600000
2019-04-03T08:27:42.397Z,11.600000
2019-04-03T08:30:12.878Z,9.300000
2019-04-03T08:32:43.242Z,9.300000
2019-04-03T08:35:20.823Z,11.300000
2019-04-03T08:37:53.448Z,11.300000
2019-04-03T08:40:23.806Z,12.100000
2019-04-03T08:42:54.404Z,12.100000
2019-04-03T08:45:24.932Z,10.100000
2019-04-03T08:47:55.298Z,10.100000
2019-04-03T08:50:26.760Z,10.200000
2019-04-03T08:52:58.919Z,10.200000
2019-04-03T08:55:29.628Z,9.000000
2019-04-03T08:57:59.939Z,9.000000
2019-04-03T09:00:32.127Z,9.100000
2019-04-03T09:03:04.090Z,9.100000
2019-04-03T09:05:34.664Z,7.800000
2019-04-03T09:08:05.115Z,7.800000
2019-04-03T09:10:36.722Z,8.900000
2019-04-03T09:13:17.004Z,8.900000
2019-04-03T09:15:49.234Z,8.700000
2019-04-03T09:18:19.591Z,8.700000
2019-04-03T09:20:50.206Z,8.100000
2019-04-03T09:23:20.720Z,8.100000
2019-04-03T09:25:51.025Z,8.600000
2019-04-03T09:28:21.591Z,8.600000
2019-04-03T09:30:54.021Z,6.500000
2019-04-03T09:33:25.814Z,6.500000
2019-04-03T09:35:58.980Z,6.900000
2019-04-03T09:38:30.273Z,6.900000
2019-04-03T09:41:00.758Z,7.000000
2019-04-03T09:43:31.194Z,7.000000
2019-04-03T09:46:01.565Z,6.300000
2019-04-03T09:48:32.122Z,6.300000
2019-04-03T09:51:02.559Z,7.200000
2019-04-03T09:53:32.888Z,7.200000
2019-04-03T09:56:03.535Z,7.000000
2019-04-03T09:58:35.630Z,7.000000
2019-04-03T10:01:06.160Z,6.900000
2019-04-03T10:03:36.621Z,6.900000
2019-04-03T10:06:06.981Z,6.900000
2019-04-03T10:08:38.093Z,6.900000
2019-04-03T10:11:10.559Z,5.400000
2019-04-03T10:13:40.894Z,5.400000
2019-04-03T10:16:11.220Z,5.200000
2019-04-03T10:18:42.319Z,5.200000
2019-04-03T10:21:19.923Z,5.400000
2019-04-03T10:23:51.060Z,5.400000
2019-04-03T10:26:21.420Z,4.900000
2019-04-03T10:28:51.807Z,4.900000
2019-04-03T10:31:24.255Z,5.500000
2019-04-03T10:33:55.182Z,5.500000
2019-04-03T10:36:25.524Z,4.200000
2019-04-03T10:38:55.878Z,4.200000
2019-04-03T10:41:28.754Z,4.400000
2019-04-03T10:43:59.705Z,4.400000
2019-04-03T10:46:30.037Z,3.800000
2019-04-03T10:49:01.247Z,3.800000
2019-04-03T10:51:31.897Z,4.000000
2019-04-03T10:54:02.237Z,4.000000
2019-04-03T10:56:32.780Z,4.800000
2019-04-03T10:59:10.716Z,4.800000
2019-04-03T11:01:42.845Z,3.800000
2019-04-03T11:04:13.641Z,3.800000
2019-04-03T11:06:43.857Z,3.800000
2019-04-03T11:09:14.462Z,3.800000
2019-04-03T11:11:45.220Z,4.000000
2019-04-03T11:14:15.680Z,4.200000
2019-04-03T11:16:46.468Z,4.200000
2019-04-03T11:19:19.550Z,3.300000
2019-04-03T11:21:50.881Z,3.300000
2019-04-03T11:24:26.749Z,3.600000
2019-04-03T11:27:02.472Z,3.600000
2019-04-03T11:29:33.168Z,2.600000
2019-04-03T11:32:03.528Z,2.600000
2019-04-03T11:34:33.779Z,3.300000
2019-04-03T11:37:04.141Z,3.300000
2019-04-03T11:39:37.163Z,3.300000
2019-04-03T11:42:07.796Z,3.300000
2019-04-03T11:44:38.152Z,2.900000
2019-04-03T11:47:08.525Z,2.900000
2019-04-03T11:49:38.893Z,3.100000
2019-04-03T11:52:09.457Z,3.100000
2019-04-03T11:54:40.031Z,1.900000
2019-04-03T11:57:10.909Z,1.900000
2019-04-03T11:59:41.406Z,3.600000
2019-04-03T12:02:11.878Z,3.600000
2019-04-03T12:04:44.477Z,3.200000
2019-04-03T12:07:15.118Z,3.200000
2019-04-03T12:09:45.484Z,3.300000
2019-04-03T12:12:16.185Z,3.300000
2019-04-03T12:14:48.448Z,3.200000
2019-04-03T12:17:19.453Z,3.200000
2019-04-03T12:19:49.922Z,3.400000
2019-04-03T12:22:21.980Z,3.400000
2019-04-03T12:24:53.328Z,3.900000
2019-04-03T12:27:23.692Z,3.900000
2019-04-03T12:29:54.575Z,2.900000
2019-04-03T12:32:36.501Z,2.900000
2019-04-03T12:35:09.799Z,2.200000
2019-04-03T12:37:41.397Z,2.200000
2019-04-03T12:40:11.696Z,2.900000
2019-04-03T12:42:42.232Z,2.900000
2019-04-03T12:45:12.671Z,2.100000
2019-04-03T12:47:44.094Z,2.100000
2019-04-03T12:50:15.030Z,2.300000
2019-04-03T12:52:45.939Z,2.300000
2019-04-03T12:55:16.371Z,2.200000
2019-04-03T12:57:46.665Z,2.200000
2019-04-03T13:00:16.998Z,1.800000
2019-04-03T13:02:47.271Z,1.800000
2019-04-03T13:05:17.592Z,1.800000
2019-04-03T13:07:48.125Z,1.800000
2019-04-03T13:10:18.648Z,1.700000
2019-04-03T13:12:49.497Z,1.700000
2019-04-03T13:15:19.973Z,1.500000
2019-04-03T13:17:50.241Z,1.500000
2019-04-03T13:20:20.580Z,1.400000
2019-04-03T13:22:50.950Z,1.400000
2019-04-03T13:25:21.773Z,1.500000
2019-04-03T13:27:52.911Z,1.500000
2019-04-03T13:30:23.549Z,1.900000
2019-04-03T13:32:59.848Z,1.900000
2019-04-03T13:35:32.375Z,1.100000
2019-04-03T13:38:02.728Z,1.100000
2019-04-03T13:40:33.145Z,1.500000
2019-04-03T13:43:03.565Z,1.500000
2019-04-03T13:45:33.927Z,1.700000
2019-04-03T13:48:04.490Z,1.700000
2019-04-03T13:50:34.950Z,1.600000
2019-04-03T13:53:05.354Z,1.600000
2019-04-03T13:55:38.942Z,1.400000
2019-04-03T13:58:10.374Z,1.400000
2019-04-03T14:00:40.836Z,1.800000
2019-04-03T14:03:11.538Z,1.800000
2019-04-03T14:05:43.373Z,1.400000
2019-04-03T14:08:19.324Z,1.400000
2019-04-03T14:10:49.959Z,1.400000
2019-04-03T14:13:25.253Z,1.400000
2019-04-03T14:15:56.303Z,1.600000
2019-04-03T14:18:26.700Z,1.600000
2019-04-03T14:20:57.171Z,1.700000
2019-04-03T14:23:27.551Z,1.700000
2019-04-03T14:26:06.302Z,1.900000
2019-04-03T14:28:37.723Z,1.900000
2019-04-03T14:31:13.099Z,1.300000
2019-04-03T14:33:48.611Z,1.600000
2019-04-03T14:36:19.593Z,1.600000
2019-04-03T14:38:50.290Z,1.700000
2019-04-03T14:41:20.777Z,1.700000
2019-04-03T14:43:51.127Z,2.300000
2019-04-03T14:46:21.581Z,2.300000
2019-04-03T14:48:51.952Z,2.300000
2019-04-03T14:51:22.256Z,2.300000
2019-04-03T14:53:53.477Z,2.100000
2019-04-03T14:56:23.997Z,2.100000
2019-04-03T14:58:54.221Z,2.700000
2019-04-03T15:01:24.960Z,2.700000
2019-04-03T15:03:55.504Z,1.600000
2019-04-03T15:06:26.090Z,1.600000
2019-04-03T15:08:56.383Z,2.100000
2019-04-03T15:11:26.787Z,2.100000
2019-04-03T15:13:57.411Z,1.700000
2019-04-03T15:16:29.334Z,1.700000
2019-04-03T15:19:02.612Z,3.300000
2019-04-03T15:21:33.115Z,3.300000
2019-04-03T15:24:03.512Z,3.300000
2019-04-03T15:26:33.911Z,3.300000
2019-04-03T15:29:04.211Z,3.000000
2019-04-03T15:31:34.736Z,3.000000
2019-04-03T15:34:05.426Z,2.500000
2019-04-03T15:36:36.469Z,2.500000
2019-04-03T15:39:07.428Z,4.000000
2019-04-03T15:41:38.043Z,4.000000
2019-04-03T15:44:08.512Z,4.600000
2019-04-03T15:46:38.793Z,4.600000
2019-04-03T15:49:09.149Z,4.100000
2019-04-03T15:51:39.870Z,4.100000
2019-04-03T15:54:10.688Z,4.900000
2019-04-03T15:56:44.340Z,4.900000
2019-04-03T15:59:15.390Z,2.700000
2019-04-03T16:01:45.787Z,2.700000
2019-04-03T16:04:16.237Z,4.000000
2019-04-03T16:06:46.616Z,4.000000
2019-04-03T16:09:18.291Z,4.300000
2019-04-03T16:11:49.310Z,4.300000
2019-04-03T16:14:20.420Z,5.300000
2019-04-03T16:16:51.318Z,5.300000
2019-04-03T16:19:21.701Z,6.000000
2019-04-03T16:21:58.083Z,6.000000
2019-04-03T16:24:28.577Z,4.800000
2019-04-03T16:26:59.388Z,4.800000
2019-04-03T16:29:30.822Z,4.800000
2019-04-03T16:32:01.874Z,4.800000
2019-04-03T16:34:32.435Z,6.400000
2019-04-03T16:37:02.988Z,6.400000
2019-04-03T16:39:33.775Z,7.900000
2019-04-03T16:42:04.216Z,7.900000
2019-04-03T16:44:34.638Z,8.700000
2019-04-03T16:47:05.028Z,8.700000
2019-04-03T16:49:35.807Z,9.200000
2019-04-03T16:52:06.313Z,9.200000
2019-04-03T16:54:37.107Z,7.000000
2019-04-03T16:57:07.909Z,7.000000
2019-04-03T16:59:38.218Z,8.800000
2019-04-03T17:02:08.667Z,8.800000
2019-04-03T17:04:38.967Z,8.200000
2019-04-03T17:07:09.718Z,8.200000
2019-04-03T17:09:40.940Z,9.900000
2019-04-03T17:12:11.331Z,9.900000
2019-04-03T17:14:41.656Z,9.200000
2019-04-03T17:17:14.171Z,9.200000
2019-04-03T17:19:45.160Z,9.400000
2019-04-03T17:22:15.499Z,9.400000
2019-04-03T17:24:49.348Z,9.100000
2019-04-03T17:27:21.102Z,9.100000
2019-04-03T17:29:51.425Z,9.700000
2019-04-03T17:32:22.227Z,9.700000
2019-04-03T17:34:52.662Z,8.600000
2019-04-03T17:37:25.442Z,8.600000
2019-04-03T17:39:57.522Z,11.700000
2019-04-03T17:42:27.835Z,11.700000
2019-04-03T17:44:58.262Z,9.800000
2019-04-03T17:47:28.601Z,9.800000
2019-04-03T17:49:59.269Z,9.700000
2019-04-03T17:52:30.199Z,9.700000
2019-04-03T17:55:00.482Z,9.300000
2019-04-03T17:57:30.924Z,9.300000
2019-04-03T18:00:01.292Z,8.600000
2019-04-03T18:02:31.828Z,8.600000
2019-04-03T18:05:02.197Z,9.600000
2019-04-03T18:07:32.423Z,9.600000
2019-04-03T18:10:02.791Z,8.600000
2019-04-03T18:12:33.062Z,8.600000
2019-04-03T18:15:03.496Z,10.300000
2019-04-03T18:17:33.826Z,10.300000
2019-04-03T18:20:04.177Z,8.900000
2019-04-03T18:22:34.560Z,8.900000
2019-04-03T18:25:07.844Z,9.300000
2019-04-03T18:27:38.549Z,9.300000
2019-04-03T18:30:11.395Z,11.000000
2019-04-03T18:32:41.980Z,11.000000
2019-04-03T18:35:12.353Z,9.900000
2019-04-03T18:37:42.851Z,9.900000
2019-04-03T18:40:15.044Z,8.400000
2019-04-03T18:42:45.687Z,9.300000
2019-04-03T18:45:24.925Z,9.300000
2019-04-03T18:47:56.084Z,8.700000
2019-04-03T18:50:26.501Z,8.700000
2019-04-03T18:52:56.934Z,9.800000
2019-04-03T18:55:27.227Z,9.800000
2019-04-03T18:57:57.546Z,10.900000
2019-04-03T19:00:30.446Z,10.900000
2019-04-03T19:03:01.285Z,7.900000
2019-04-03T19:05:31.562Z,7.900000
2019-04-03T19:08:12.389Z,9.700000
2019-04-03T19:10:43.975Z,9.700000
2019-04-03T19:13:14.625Z,9.200000
2019-04-03T19:15:45.146Z,9.200000
2019-04-03T19:18:19.573Z,10.200000
2019-04-03T19:20:50.668Z,10.200000
2019-04-03T19:23:21.047Z,9.400000
2019-04-03T19:25:51.528Z,9.400000
2019-04-03T19:28:21.894Z,12.000000
2019-04-03T19:30:52.266Z,12.000000
2019-04-03T19:33:22.653Z,9.200000
2019-04-03T19:35:53.136Z,9.200000
2019-04-03T19:38:23.489Z,12.500000
2019-04-03T19:40:53.768Z,12.500000
2019-04-03T19:43:24.063Z,10.200000
2019-04-03T19:45:54.426Z,10.200000
2019-04-03T19:48:25.653Z,10.200000
2019-04-03T19:50:56.647Z,10.200000
2019-04-03T19:53:26.900Z,11.800000
2019-04-03T19:55:57.264Z,11.800000
2019-04-03T19:58:29.622Z,11.000000
2019-04-03T20:01:00.024Z,11.000000
2019-04-03T20:03:30.491Z,13.300000
2019-04-03T20:06:00.840Z,13.300000
2019-04-03T20:08:31.258Z,13.400000
2019-04-03T20:11:03.065Z,13.400000
2019-04-03T20:13:35.331Z,11.900000
2019-04-03T20:16:05.683Z,11.900000
2019-04-03T20:18:35.872Z,12.400000
2019-04-03T20:21:07.255Z,12.400000
2019-04-03T20:23:37.513Z,11.700000
2019-04-03T20:26:07.999Z,11.700000
2019-04-03T20:28:38.501Z,14.200000
2019-04-03T20:31:08.979Z,14.200000
2019-04-03T20:33:42.105Z,14.700000
2019-04-03T20:36:13.165Z,14.700000
2019-04-03T20:38:43.649Z,12.500000
2019-04-03T20:41:13.970Z,12.500000
2019-04-03T20:43:47.113Z,11.600000
2019-04-03T20:46:17.852Z,11.600000
2019-04-03T20:48:48.229Z,14.700000
2019-04-03T20:51:18.555Z,14.700000
2019-04-03T20:53:50.139Z,12.900000
2019-04-03T20:56:20.956Z,12.900000
2019-04-03T20:58:56.101Z,11.200000
2019-04-03T21:01:26.744Z,11.200000
2019-04-03T21:03:57.113Z,12.200000
2019-04-03T21:06:27.460Z,12.200000
2019-04-03T21:08:59.430Z,13.500000
2019-04-03T21:11:29.856Z,13.500000
2019-04-03T21:14:00.216Z,15.500000
2019-04-03T21:16:33.504Z,15.500000
2019-04-03T21:19:04.008Z,14.000000
2019-04-03T21:21:34.361Z,14.000000
2019-04-03T21:24:04.728Z,15.900000
2019-04-03T21:26:37.641Z,15.900000
2019-04-03T21:29:08.676Z,15.600000
2019-04-03T21:31:38.923Z,15.600000
2019-04-03T21:34:09.339Z,12.700000
2019-04-03T21:36:39.640Z,12.700000
2019-04-03T21:39:12.611Z,14.700000
2019-04-03T21:41:43.239Z,14.700000
2019-04-03T21:44:13.594Z,13.700000
2019-04-03T21:46:44.119Z,13.700000
2019-04-03T21:49:14.851Z,17.000000
2019-04-03T21:51:47.010Z,17.000000
2019-04-03T21:54:17.337Z,17.800000
2019-04-03T21:56:47.668Z,17.800000
2019-04-03T21:59:18.012Z,15.800000
2019-04-03T22:01:48.450Z,15.800000
2019-04-03T22:04:18.790Z,17.900000
2019-04-03T22:06:49.196Z,17.900000
2019-04-03T22:09:19.604Z,13.000000
2019-04-03T22:11:50.047Z,13.000000
2019-04-03T22:14:20.495Z,11.400000
2019-04-03T22:16:51.334Z,11.700000
2019-04-03T22:19:21.693Z,11.700000
2019-04-03T22:21:57.013Z,12.000000
2019-04-03T22:24:29.477Z,12.000000
2019-04-03T22:26:59.799Z,13.000000
2019-04-03T22:29:30.128Z,13.000000
2019-04-03T22:32:00.495Z,12.600000
2019-04-03T22:34:30.816Z,12.600000
2019-04-03T22:37:03.775Z,12.300000
2019-04-03T22:39:34.884Z,12.300000
2019-04-03T22:42:05.222Z,12.600000
2019-04-03T22:44:35.462Z,12.600000
2019-04-03T22:47:05.797Z,11.300000
2019-04-03T22:49:36.310Z,11.300000
2019-04-03T22:52:08.649Z,10.200000
2019-04-03T22:54:39.128Z,10.200000
2019-04-03T22:57:09.482Z,12.500000
2019-04-03T22:59:39.824Z,12.500000
2019-04-03T23:02:10.159Z,10.900000
2019-04-03T23:04:42.112Z,10.900000
2019-04-03T23:07:14.940Z,15.200000
2019-04-03T23:09:45.387Z,15.200000
2019-04-03T23:12:15.642Z,14.100000
2019-04-03T23:14:45.994Z,14.100000
2019-04-03T23:17:16.335Z,11.700000
2019-04-03T23:19:46.746Z,11.700000
2019-04-03T23:22:17.099Z,16.900000
2019-04-03T23:24:47.456Z,16.900000
2019-04-03T23:27:17.783Z,18.700000
2019-04-03T23:29:48.037Z,18.700000
2019-04-03T23:32:18.379Z,20.000000
2019-04-03T23:34:49.578Z,20.000000
2019-04-03T23:37:20.446Z,19.200000
2019-04-03T23:39:50.831Z,19.200000
2019-04-03T23:42:21.245Z,19.200000
2019-04-03T23:44:51.609Z,19.200000
2019-04-03T23:47:21.934Z,18.000000
2019-04-03T23:49:52.492Z,18.000000
2019-04-03T23:52:22.792Z,18.500000
2019-04-03T23:54:53.161Z,18.500000
2019-04-03T23:57:23.491Z,16.700000
2019-04-03T23:59:53.824Z,16.700000
